Ralls, Texas
Current Conditions -  °F | °C
As of 8:00 AM on Monday 20 Oct 2014 (Local Time) from KLBB Reporting Station
Moderate Fog Moderate Fog  
Wind Chill: 51°   Ceiling: 20000
Heat Index: 51°   Visibility: 0.5mi
Dew Point: 49°   Wind: 6mph
Humidity: 92%   Direction: 310°NW
Pressure: 30.11"   Gusts: NA
Location:  33.67°N, 101.39°W
Report Text: KLBB 201300Z 31005KT 1/2SM R17R/1600VP6000FT FG SCT000 BKN200 11/09 A3011 RMK AO2 T01060094
Loading
Personal Weather Stations






























Interactive Weather Map New forecast layout! Learn more

10-Day Weather Forecast

Advertisements
Track Severe Weather on mobile